createdAt,value
2023-03-11T00:00:48.786Z,99044.00
2023-03-11T00:03:18.984Z,99079.00
2023-03-11T00:05:47.841Z,99042.00
2023-03-11T00:11:09.721Z,99083.00
2023-03-11T00:13:41.253Z,99124.00
2023-03-11T00:16:11.977Z,99117.00
2023-03-11T00:18:40.709Z,99144.00
2023-03-11T00:21:24.258Z,99150.00
2023-03-11T00:23:58.299Z,99107.00
2023-03-11T00:26:28.777Z,99128.00
2023-03-11T00:29:00.332Z,99169.00
2023-03-11T00:31:30.348Z,99161.00
2023-03-11T00:33:58.541Z,99172.00
2023-03-11T00:36:45.921Z,99180.00
2023-03-11T00:39:38.690Z,99154.00
2023-03-11T00:42:08.297Z,99188.00
2023-03-11T00:44:42.148Z,99176.00
2023-03-11T00:47:19.750Z,99162.00
2023-03-11T00:49:49.569Z,99161.00
2023-03-11T00:55:27.150Z,99222.00
2023-03-11T00:58:01.408Z,99197.00
2023-03-11T01:00:32.153Z,99236.00
2023-03-11T01:09:15.523Z,99183.00
2023-03-11T01:12:07.447Z,99239.00
2023-03-11T01:14:37.760Z,99186.00
2023-03-11T01:20:01.396Z,99258.00
2023-03-11T01:22:35.483Z,99262.00
2023-03-11T01:25:08.162Z,99257.00
2023-03-11T01:27:40.926Z,99229.00
2023-03-11T01:30:19.832Z,99223.00
2023-03-11T01:32:47.914Z,99243.00
2023-03-11T01:35:19.678Z,99260.00
2023-03-11T01:37:47.876Z,99294.00
2023-03-11T01:40:20.064Z,99256.00
2023-03-11T01:42:51.843Z,99259.00
2023-03-11T01:45:39.605Z,99267.00
2023-03-11T01:48:08.336Z,99321.00
2023-03-11T01:50:39.503Z,99305.00
2023-03-11T01:53:08.295Z,99329.00
2023-03-11T01:55:36.832Z,99327.00
2023-03-11T01:58:08.757Z,99299.00
2023-03-11T02:00:37.560Z,99325.00
2023-03-11T02:03:12.541Z,99337.00
2023-03-11T02:05:41.108Z,99358.00
2023-03-11T02:08:09.390Z,99340.00
2023-03-11T02:10:39.758Z,99374.00
2023-03-11T02:13:09.239Z,99351.00
2023-03-11T02:15:39.784Z,99372.00
2023-03-11T02:18:09.588Z,99361.00
2023-03-11T02:20:45.192Z,99382.00
2023-03-11T02:23:15.486Z,99372.00
2023-03-11T02:25:49.613Z,99396.00
2023-03-11T02:28:21.035Z,99407.00
2023-03-11T02:30:49.708Z,99343.00
2023-03-11T02:33:19.721Z,99399.00
2023-03-11T02:35:47.622Z,99397.00
2023-03-11T02:38:15.837Z,99397.00
2023-03-11T02:40:51.938Z,99353.00
2023-03-11T02:43:25.941Z,99351.00
2023-03-11T02:45:54.723Z,99383.00
2023-03-11T02:48:24.052Z,99377.00
2023-03-11T02:50:53.331Z,99387.00
2023-03-11T02:53:21.454Z,99422.00
2023-03-11T02:55:49.453Z,99442.00
2023-03-11T02:58:17.501Z,99403.00
2023-03-11T03:00:46.950Z,99423.00
2023-03-11T03:03:15.491Z,99412.00
2023-03-11T03:05:43.716Z,99416.00
2023-03-11T03:08:11.765Z,99448.00
2023-03-11T03:10:40.153Z,99446.00
2023-03-11T03:13:08.178Z,99446.00
2023-03-11T03:15:36.166Z,99379.00
2023-03-11T03:18:06.023Z,99455.00
2023-03-11T03:20:34.007Z,99464.00
2023-03-11T03:23:02.022Z,99425.00
2023-03-11T03:25:31.444Z,99470.00
2023-03-11T03:27:59.340Z,99390.00
2023-03-11T03:30:28.520Z,99422.00
2023-03-11T03:32:56.699Z,99420.00
2023-03-11T03:35:26.117Z,99440.00
2023-03-11T03:37:55.145Z,99447.00
2023-03-11T03:40:23.104Z,99446.00
2023-03-11T03:42:51.259Z,99486.00
2023-03-11T03:45:19.361Z,99461.00
2023-03-11T03:47:47.225Z,99459.00
2023-03-11T03:50:15.058Z,99498.00
2023-03-11T03:52:44.367Z,99520.00
2023-03-11T03:55:12.370Z,99470.00
2023-03-11T03:57:40.165Z,99517.00
2023-03-11T04:00:10.224Z,99538.00
2023-03-11T04:02:38.197Z,99531.00
2023-03-11T04:05:07.173Z,99523.00
2023-03-11T04:07:35.753Z,99537.00
2023-03-11T04:10:05.852Z,99540.00
2023-03-11T04:12:33.820Z,99548.00
2023-03-11T04:15:01.755Z,99527.00
2023-03-11T04:17:29.658Z,99551.00
2023-03-11T04:19:57.491Z,99551.00
2023-03-11T04:22:25.321Z,99555.00
2023-03-11T04:24:53.352Z,99556.00
2023-03-11T04:27:22.652Z,99572.00
2023-03-11T04:29:50.590Z,99491.00
2023-03-11T04:32:18.462Z,99536.00
2023-03-11T04:34:46.446Z,99494.00
2023-03-11T04:37:14.233Z,99564.00
2023-03-11T04:39:42.113Z,99500.00
2023-03-11T04:42:10.052Z,99560.00
2023-03-11T04:44:39.523Z,99561.00
2023-03-11T04:47:07.385Z,99571.00
2023-03-11T04:49:35.207Z,99572.00
2023-03-11T04:52:03.236Z,99533.00
2023-03-11T04:54:31.245Z,99579.00
2023-03-11T04:56:59.159Z,99576.00
2023-03-11T04:59:26.944Z,99594.00
2023-03-11T05:01:56.218Z,99556.00
2023-03-11T05:04:24.046Z,99614.00
2023-03-11T05:06:52.287Z,99612.00
2023-03-11T05:09:20.166Z,99617.00
2023-03-11T05:11:48.070Z,99620.00
2023-03-11T05:14:15.893Z,99610.00
2023-03-11T05:16:43.820Z,99608.00
2023-03-11T05:19:26.906Z,99589.00
2023-03-11T05:21:55.478Z,99608.00
2023-03-11T05:24:23.403Z,99633.00
2023-03-11T05:26:51.347Z,99650.00
2023-03-11T05:29:19.433Z,99602.00
2023-03-11T05:31:48.045Z,99629.00
2023-03-11T05:34:17.874Z,99670.00
2023-03-11T05:36:47.217Z,99664.00
2023-03-11T05:39:15.482Z,99677.00
2023-03-11T05:41:43.324Z,99670.00
2023-03-11T05:44:11.202Z,99635.00
2023-03-11T05:46:39.194Z,99677.00
2023-03-11T05:49:07.129Z,99632.00
2023-03-11T05:51:37.607Z,99651.00
2023-03-11T05:54:07.297Z,99677.00
2023-03-11T05:56:35.152Z,99659.00
2023-03-11T05:59:03.019Z,99683.00
2023-03-11T06:01:30.916Z,99658.00
2023-03-11T06:03:58.798Z,99665.00
2023-03-11T06:06:26.748Z,99665.00
2023-03-11T06:08:56.473Z,99676.00
2023-03-11T06:11:25.573Z,99712.00
2023-03-11T06:13:54.247Z,99719.00
2023-03-11T06:16:23.955Z,99689.00
2023-03-11T06:18:52.461Z,99729.00
2023-03-11T06:21:22.468Z,99717.00
2023-03-11T06:23:51.124Z,99722.00
2023-03-11T06:26:22.535Z,99724.00
2023-03-11T06:28:51.669Z,99699.00
2023-03-11T06:31:22.470Z,99691.00
2023-03-11T06:33:50.727Z,99742.00
2023-03-11T06:36:20.568Z,99730.00
2023-03-11T06:38:50.128Z,99734.00
2023-03-11T06:41:18.023Z,99750.00
2023-03-11T06:43:47.555Z,99753.00
2023-03-11T06:46:19.266Z,99752.00
2023-03-11T06:48:47.663Z,99769.00
2023-03-11T06:51:15.793Z,99718.00
2023-03-11T06:53:43.719Z,99759.00
2023-03-11T06:56:14.127Z,99736.00
2023-03-11T06:58:43.647Z,99786.00
2023-03-11T07:01:15.160Z,99787.00
2023-03-11T07:03:43.503Z,99796.00
2023-03-11T07:06:15.177Z,99799.00
2023-03-11T07:08:43.332Z,99826.00
2023-03-11T07:11:15.149Z,99810.00
2023-03-11T07:13:43.730Z,99773.00
2023-03-11T07:16:15.657Z,99765.00
2023-03-11T07:18:44.528Z,99834.00
2023-03-11T07:21:15.011Z,99833.00
2023-03-11T07:23:43.366Z,99767.00
2023-03-11T07:26:11.987Z,99837.00
2023-03-11T07:28:40.534Z,99833.00
2023-03-11T07:31:09.579Z,99803.00
2023-03-11T07:33:39.427Z,99861.00
2023-03-11T07:36:09.017Z,99868.00
2023-03-11T07:38:37.103Z,99827.00
2023-03-11T07:41:05.324Z,99879.00
2023-03-11T07:43:33.528Z,99879.00
2023-03-11T07:46:06.241Z,99900.00
2023-03-11T07:48:34.864Z,99835.00
2023-03-11T07:51:05.739Z,99899.00
2023-03-11T07:53:34.432Z,99867.00
2023-03-11T07:56:03.526Z,99902.00
2023-03-11T07:58:32.116Z,99907.00
2023-03-11T08:01:06.870Z,99891.00
2023-03-11T08:03:35.211Z,99927.00
2023-03-11T08:06:05.177Z,99904.00
2023-03-11T08:08:33.301Z,99887.00
2023-03-11T08:11:39.469Z,99948.00
2023-03-11T08:14:14.464Z,99929.00
2023-03-11T08:16:44.049Z,99906.00
2023-03-11T08:19:14.250Z,99944.00
2023-03-11T08:21:43.599Z,99891.00
2023-03-11T08:24:14.457Z,99940.00
2023-03-11T08:26:42.992Z,99930.00
2023-03-11T08:29:10.960Z,99958.00
2023-03-11T08:31:39.225Z,99926.00
2023-03-11T08:37:26.104Z,99909.00
2023-03-11T08:39:54.005Z,99986.00
2023-03-11T08:42:22.076Z,99967.00
2023-03-11T08:44:52.504Z,99970.00
2023-03-11T08:47:20.497Z,99974.00
2023-03-11T08:49:48.291Z,99968.00
2023-03-11T08:52:16.124Z,99995.00
2023-03-11T08:54:45.319Z,100005.00
2023-03-11T08:57:13.122Z,100005.00
2023-03-11T08:59:40.842Z,99998.00
2023-03-11T09:02:08.654Z,100007.00
2023-03-11T09:04:36.445Z,99994.00
2023-03-11T09:07:07.558Z,100007.00
2023-03-11T09:09:35.416Z,100011.00
2023-03-11T09:12:05.082Z,99989.00
2023-03-11T09:14:32.956Z,100024.00
2023-03-11T09:17:01.014Z,99967.00
2023-03-11T09:19:29.341Z,100023.00
2023-03-11T09:21:59.399Z,100039.00
2023-03-11T09:24:27.482Z,99970.00
2023-03-11T09:26:56.052Z,100033.00
2023-03-11T09:29:32.413Z,100003.00
2023-03-11T09:32:06.651Z,100048.00
2023-03-11T09:34:37.967Z,100028.00
2023-03-11T09:37:08.998Z,100006.00
2023-03-11T09:39:37.746Z,100030.00
2023-03-11T09:42:20.045Z,100056.00
2023-03-11T09:45:05.436Z,100000.00
2023-03-11T09:47:43.931Z,100049.00
2023-03-11T09:50:29.970Z,100030.00
2023-03-11T09:53:23.989Z,100065.00
2023-03-11T09:55:57.430Z,100029.00
2023-03-11T09:58:39.732Z,100073.00
2023-03-11T10:01:18.764Z,100006.00
2023-03-11T10:03:47.386Z,100059.00
2023-03-11T10:06:24.537Z,100056.00
2023-03-11T10:12:19.499Z,100089.00
2023-03-11T10:15:09.393Z,100018.00
2023-03-11T10:18:30.606Z,100019.00
2023-03-11T10:21:06.951Z,100089.00
2023-03-11T10:24:00.824Z,100050.00
2023-03-11T10:26:36.312Z,100054.00
2023-03-11T10:29:15.432Z,100091.00
2023-03-11T10:31:49.990Z,100038.00
2023-03-11T10:34:24.868Z,100052.00
2023-03-11T10:37:05.090Z,100095.00
2023-03-11T10:39:34.445Z,100085.00
2023-03-11T10:42:04.614Z,100038.00
2023-03-11T10:44:35.650Z,100100.00
2023-03-11T10:47:08.388Z,100096.00
2023-03-11T10:49:37.797Z,100045.00
2023-03-11T10:52:08.722Z,100083.00
2023-03-11T10:54:39.560Z,100106.00
2023-03-11T10:57:22.844Z,100102.00
2023-03-11T10:59:54.789Z,100114.00
2023-03-11T11:02:28.611Z,100113.00
2023-03-11T11:05:20.691Z,100115.00
2023-03-11T11:07:56.757Z,100084.00
2023-03-11T11:10:25.999Z,100062.00
2023-03-11T11:12:56.959Z,100075.00
2023-03-11T11:15:27.431Z,100105.00
2023-03-11T11:18:00.297Z,100095.00
2023-03-11T11:20:32.841Z,100107.00
2023-03-11T11:23:05.175Z,100113.00
2023-03-11T11:25:35.826Z,100117.00
2023-03-11T11:28:07.218Z,100108.00
2023-03-11T11:30:35.298Z,100081.00
2023-03-11T11:33:24.578Z,100087.00
2023-03-11T11:35:59.279Z,100073.00
2023-03-11T11:38:29.287Z,100139.00
2023-03-11T11:41:00.022Z,100113.00
2023-03-11T11:43:49.630Z,100113.00
2023-03-11T11:46:23.663Z,100130.00
2023-03-11T11:49:00.283Z,100068.00
2023-03-11T11:51:32.525Z,100105.00
2023-03-11T11:54:04.092Z,100097.00
2023-03-11T11:56:32.097Z,100077.00
2023-03-11T11:58:59.971Z,100115.00
2023-03-11T12:01:43.602Z,100102.00
2023-03-11T12:04:28.279Z,100110.00
2023-03-11T12:07:11.488Z,100112.00
2023-03-11T12:09:47.353Z,100121.00
2023-03-11T12:12:24.951Z,100120.00
2023-03-11T12:15:02.693Z,100116.00
2023-03-11T12:17:33.102Z,100109.00
2023-03-11T12:20:04.454Z,100084.00
2023-03-11T12:22:54.911Z,100114.00
2023-03-11T12:25:35.698Z,100077.00
2023-03-11T12:28:14.214Z,100114.00
2023-03-11T12:30:45.946Z,100119.00
2023-03-11T12:33:19.429Z,100088.00
2023-03-11T12:35:54.456Z,100122.00
2023-03-11T12:38:31.219Z,100123.00
2023-03-11T12:41:36.901Z,100105.00
2023-03-11T12:44:21.124Z,100113.00
2023-03-11T12:47:18.546Z,100099.00
2023-03-11T12:49:48.137Z,100081.00
2023-03-11T12:52:26.400Z,100127.00
2023-03-11T12:55:36.888Z,100125.00
2023-03-11T12:58:30.751Z,100108.00
2023-03-11T13:01:16.715Z,100118.00
2023-03-11T13:03:57.158Z,100118.00
2023-03-11T13:06:47.603Z,100109.00
2023-03-11T13:09:17.947Z,100082.00
2023-03-11T13:11:48.128Z,100139.00
2023-03-11T13:14:28.741Z,100143.00
2023-03-11T13:16:57.842Z,100136.00
2023-03-11T13:19:49.796Z,100147.00
2023-03-11T13:22:54.271Z,100142.00
2023-03-11T13:25:31.643Z,100149.00
2023-03-11T13:28:12.236Z,100149.00
2023-03-11T13:31:16.684Z,100143.00
2023-03-11T13:33:52.399Z,100154.00
2023-03-11T13:36:40.833Z,100155.00
2023-03-11T13:39:33.008Z,100110.00
2023-03-11T13:42:01.191Z,100151.00
2023-03-11T13:44:32.003Z,100151.00
2023-03-11T13:47:05.154Z,100166.00
2023-03-11T13:49:41.244Z,100162.00
2023-03-11T13:52:15.037Z,100165.00
2023-03-11T13:54:49.371Z,100129.00
2023-03-11T13:57:26.604Z,100127.00
2023-03-11T13:59:55.867Z,100181.00
2023-03-11T14:02:26.500Z,100149.00
2023-03-11T14:04:58.932Z,100175.00
2023-03-11T14:07:30.258Z,100190.00
2023-03-11T14:10:18.231Z,100179.00
2023-03-11T14:12:46.220Z,100152.00
2023-03-11T14:18:31.601Z,100173.00
2023-03-11T14:21:01.586Z,100143.00
2023-03-11T14:23:34.017Z,100162.00
2023-03-11T14:26:04.775Z,100178.00
2023-03-11T14:28:37.422Z,100182.00
2023-03-11T14:31:05.611Z,100143.00
2023-03-11T14:33:33.530Z,100189.00
2023-03-11T14:36:04.975Z,100170.00
2023-03-11T14:38:33.715Z,100194.00
2023-03-11T14:41:03.621Z,100198.00
2023-03-11T14:43:36.025Z,100194.00
2023-03-11T14:46:05.760Z,100196.00
2023-03-11T14:48:37.726Z,100197.00
2023-03-11T14:51:14.622Z,100201.00
2023-03-11T14:53:45.569Z,100189.00
2023-03-11T14:56:17.666Z,100165.00
2023-03-11T14:58:53.211Z,100191.00
2023-03-11T15:01:32.084Z,100162.00
2023-03-11T15:04:07.611Z,100176.00
2023-03-11T15:06:39.627Z,100170.00
2023-03-11T15:09:09.417Z,100206.00
2023-03-11T15:11:46.474Z,100175.00
2023-03-11T15:14:24.166Z,100169.00
2023-03-11T15:16:54.225Z,100216.00
2023-03-11T15:19:24.042Z,100217.00
2023-03-11T15:21:54.570Z,100205.00
2023-03-11T15:24:27.164Z,100210.00
2023-03-11T15:26:58.063Z,100197.00
2023-03-11T15:30:02.732Z,100147.00
2023-03-11T15:32:42.415Z,100218.00
2023-03-11T15:35:31.305Z,100212.00
2023-03-11T15:38:25.735Z,100191.00
2023-03-11T15:40:58.879Z,100211.00
2023-03-11T15:43:37.629Z,100188.00
2023-03-11T15:46:23.244Z,100212.00
2023-03-11T15:48:51.098Z,100197.00
2023-03-11T15:51:20.444Z,100215.00
2023-03-11T15:53:49.834Z,100193.00
2023-03-11T15:56:23.638Z,100201.00
2023-03-11T15:58:51.620Z,100159.00
2023-03-11T16:01:23.622Z,100207.00
2023-03-11T16:03:51.525Z,100171.00
2023-03-11T16:06:19.396Z,100217.00
2023-03-11T16:08:47.166Z,100213.00
2023-03-11T16:11:18.799Z,100219.00
2023-03-11T16:13:46.634Z,100219.00
2023-03-11T16:16:20.590Z,100220.00
2023-03-11T16:18:48.413Z,100214.00
2023-03-11T16:21:20.356Z,100227.00
2023-03-11T16:23:52.240Z,100225.00
2023-03-11T16:26:23.116Z,100209.00
2023-03-11T16:28:51.116Z,100213.00
2023-03-11T16:31:18.930Z,100233.00
2023-03-11T16:33:46.705Z,100238.00
2023-03-11T16:36:14.599Z,100199.00
2023-03-11T16:38:47.334Z,100208.00
2023-03-11T16:41:15.739Z,100233.00
2023-03-11T16:43:45.469Z,100251.00
2023-03-11T16:46:15.407Z,100224.00
2023-03-11T16:48:43.363Z,100209.00
2023-03-11T16:51:11.212Z,100239.00
2023-03-11T16:53:38.966Z,100236.00
2023-03-11T16:56:07.491Z,100252.00
2023-03-11T16:58:35.366Z,100203.00
2023-03-11T17:01:04.837Z,100259.00
2023-03-11T17:03:42.042Z,100262.00
2023-03-11T17:06:10.623Z,100218.00
2023-03-11T17:08:38.339Z,100257.00
2023-03-11T17:11:06.100Z,100246.00
2023-03-11T17:13:33.908Z,100253.00
2023-03-11T17:16:03.436Z,100256.00
2023-03-11T17:18:32.596Z,100232.00
2023-03-11T17:21:02.094Z,100253.00
2023-03-11T17:23:29.818Z,100256.00
2023-03-11T17:25:59.561Z,100250.00
2023-03-11T17:28:28.404Z,100261.00
2023-03-11T17:30:56.168Z,100258.00
2023-03-11T17:33:23.947Z,100258.00
2023-03-11T17:36:01.325Z,100261.00
2023-03-11T17:38:29.404Z,100267.00
2023-03-11T17:40:57.486Z,100266.00
2023-03-11T17:43:25.556Z,100254.00
2023-03-11T17:46:09.000Z,100275.00
2023-03-11T17:48:39.592Z,100289.00
2023-03-11T17:51:10.238Z,100275.00
2023-03-11T17:53:40.262Z,100283.00
2023-03-11T17:56:09.397Z,100292.00
2023-03-11T17:58:37.392Z,100250.00
2023-03-11T18:01:06.004Z,100288.00
2023-03-11T18:03:33.818Z,100288.00
2023-03-11T18:06:03.425Z,100304.00
2023-03-11T18:08:33.752Z,100305.00
2023-03-11T18:11:03.688Z,100295.00
2023-03-11T18:13:32.134Z,100276.00
2023-03-11T18:16:01.235Z,100297.00
2023-03-11T18:18:30.442Z,100281.00
2023-03-11T18:21:01.905Z,100303.00
2023-03-11T18:23:29.733Z,100301.00
2023-03-11T18:25:59.057Z,100305.00
2023-03-11T18:28:27.165Z,100310.00
2023-03-11T18:30:55.454Z,100305.00
2023-03-11T18:33:23.514Z,100281.00
2023-03-11T18:35:51.437Z,100312.00
2023-03-11T18:38:19.298Z,100313.00
2023-03-11T18:40:47.105Z,100271.00
2023-03-11T18:43:16.367Z,100322.00
2023-03-11T18:45:44.361Z,100315.00
2023-03-11T18:48:12.174Z,100317.00
2023-03-11T18:50:39.957Z,100316.00
2023-03-11T18:53:07.754Z,100308.00
2023-03-11T18:55:36.262Z,100308.00
2023-03-11T18:58:09.277Z,100288.00
2023-03-11T19:00:38.843Z,100304.00
2023-03-11T19:03:07.233Z,100312.00
2023-03-11T19:05:35.005Z,100302.00
2023-03-11T19:08:02.783Z,100309.00
2023-03-11T19:10:30.626Z,100305.00
2023-03-11T19:12:58.474Z,100301.00
2023-03-11T19:15:26.344Z,100262.00
2023-03-11T19:18:06.270Z,100285.00
2023-03-11T19:20:35.241Z,100295.00
2023-03-11T19:23:03.444Z,100287.00
2023-03-11T19:25:31.290Z,100281.00
2023-03-11T19:27:59.144Z,100260.00
2023-03-11T19:30:27.757Z,100310.00
2023-03-11T19:32:57.197Z,100290.00
2023-03-11T19:35:25.245Z,100264.00
2023-03-11T19:37:57.443Z,100312.00
2023-03-11T19:40:29.811Z,100296.00
2023-03-11T19:42:59.045Z,100320.00
2023-03-11T19:45:26.919Z,100272.00
2023-03-11T19:47:54.928Z,100335.00
2023-03-11T19:50:24.687Z,100305.00
2023-03-11T19:52:52.492Z,100337.00
2023-03-11T19:55:20.429Z,100280.00
2023-03-11T19:57:48.242Z,100298.00
2023-03-11T20:00:17.369Z,100342.00
2023-03-11T20:02:45.274Z,100336.00
2023-03-11T20:05:13.233Z,100335.00
2023-03-11T20:07:42.603Z,100280.00
2023-03-11T20:10:11.868Z,100342.00
2023-03-11T20:12:44.766Z,100330.00
2023-03-11T20:15:17.346Z,100345.00
2023-03-11T20:17:45.422Z,100306.00
2023-03-11T20:20:13.673Z,100280.00
2023-03-11T20:22:42.947Z,100323.00
2023-03-11T20:25:11.011Z,100334.00
2023-03-11T20:27:39.010Z,100262.00
2023-03-11T20:30:08.023Z,100337.00
2023-03-11T20:32:36.016Z,100335.00
2023-03-11T20:35:04.304Z,100336.00
2023-03-11T20:37:32.791Z,100337.00
2023-03-11T20:40:02.144Z,100349.00
2023-03-11T20:42:30.507Z,100299.00
2023-03-11T20:44:58.484Z,100346.00
2023-03-11T20:47:26.590Z,100346.00
2023-03-11T20:49:56.882Z,100293.00
2023-03-11T20:52:25.018Z,100355.00
2023-03-11T20:54:53.463Z,100352.00
2023-03-11T20:57:23.059Z,100340.00
2023-03-11T20:59:51.272Z,100314.00
2023-03-11T21:02:19.812Z,100359.00
2023-03-11T21:04:48.130Z,100336.00
2023-03-11T21:07:16.251Z,100301.00
2023-03-11T21:09:44.497Z,100319.00
2023-03-11T21:12:12.505Z,100348.00
2023-03-11T21:14:41.844Z,100330.00
2023-03-11T21:17:09.934Z,100298.00
2023-03-11T21:19:37.922Z,100295.00
2023-03-11T21:22:06.912Z,100306.00
2023-03-11T21:24:35.077Z,100351.00
2023-03-11T21:27:03.342Z,100333.00
2023-03-11T21:29:31.362Z,100322.00
2023-03-11T21:32:00.854Z,100350.00
2023-03-11T21:34:29.012Z,100330.00
2023-03-11T21:36:57.598Z,100330.00
2023-03-11T21:39:25.958Z,100307.00
2023-03-11T21:41:56.534Z,100341.00
2023-03-11T21:44:24.648Z,100334.00
2023-03-11T21:46:52.627Z,100313.00
2023-03-11T21:49:22.571Z,100384.00
2023-03-11T21:51:51.166Z,100298.00
2023-03-11T21:54:19.254Z,100319.00
2023-03-11T21:56:47.236Z,100351.00
2023-03-11T21:59:15.787Z,100357.00
2023-03-11T22:01:43.838Z,100359.00
2023-03-11T22:04:11.883Z,100351.00
2023-03-11T22:06:42.044Z,100322.00
2023-03-11T22:09:10.132Z,100293.00
2023-03-11T22:11:38.217Z,100379.00
2023-03-11T22:14:06.195Z,100351.00
2023-03-11T22:16:34.370Z,100363.00
2023-03-11T22:19:04.299Z,100298.00
2023-03-11T22:21:32.332Z,100340.00
2023-03-11T22:24:01.763Z,100316.00
2023-03-11T22:26:32.648Z,100362.00
2023-03-11T22:29:02.455Z,100358.00
2023-03-11T22:31:31.842Z,100362.00
2023-03-11T22:34:00.502Z,100360.00
2023-03-11T22:36:28.537Z,100320.00
2023-03-11T22:38:56.957Z,100369.00
2023-03-11T22:41:26.307Z,100364.00
2023-03-11T22:43:54.421Z,100336.00
2023-03-11T22:46:22.354Z,100366.00
2023-03-11T22:48:50.296Z,100377.00
2023-03-11T22:51:18.519Z,100374.00
2023-03-11T22:53:48.071Z,100360.00
2023-03-11T22:56:25.606Z,100378.00
2023-03-11T22:58:55.405Z,100330.00
2023-03-11T23:01:23.271Z,100361.00
2023-03-11T23:03:51.337Z,100339.00
2023-03-11T23:06:21.290Z,100366.00
2023-03-11T23:08:49.681Z,100352.00
2023-03-11T23:11:21.149Z,100365.00
2023-03-11T23:13:49.419Z,100382.00
2023-03-11T23:16:20.824Z,100375.00
2023-03-11T23:18:51.439Z,100324.00
2023-03-11T23:21:21.388Z,100350.00
2023-03-11T23:23:49.831Z,100368.00
2023-03-11T23:26:18.611Z,100310.00
2023-03-11T23:28:46.971Z,100372.00
2023-03-11T23:31:17.099Z,100368.00
2023-03-11T23:33:46.679Z,100378.00
2023-03-11T23:36:16.939Z,100376.00
2023-03-11T23:38:45.172Z,100377.00
2023-03-11T23:41:15.108Z,100344.00
2023-03-11T23:43:43.553Z,100350.00
2023-03-11T23:46:11.403Z,100339.00
2023-03-11T23:48:40.855Z,100380.00
2023-03-11T23:51:10.408Z,100388.00
2023-03-11T23:53:38.849Z,100382.00
2023-03-11T23:56:11.458Z,100389.00
2023-03-11T23:58:42.605Z,100388.00
